»·PEaware :: N700NB KBFI-KPDX

N700NB :: KBFI-KPDX

FLIGHT INFORMATION

Flight Status: Arrived
Operator: Privately registered:
United States
More flights under this callsign
Pilot: Alex C. (14758)
Aircraft: SOCATA TBM-850
(TBM8)
More flights by this aircraft type
Origin: KBFI Boeing Field/King Co Intl
United States
Destination: KPDX Portland Intl
United States
More flights between these airports :: More routes between these airports
Route: +NRVNA1 BUWZO KRATR2
File this flight plan on PilotEdge
Remarks:
Altitude:
(Current/Filed)
15,000ft
Speed:
(Current/Filed)
280kts
Departed: 07-Nov-18 08:34 AM
Arrived: 07-Nov-18 09:39 AM
Distance/Time
Traveled:
117nm/1:04
Distance/Time
To Go:
Arrived

Flight Plot

Page will automatically refresh every two minutes.

Flight plan parsing failed; only flown route is shown


Map Options




Map Legend


Flown Route
Filed Route
Departure Airport
Arrival Airport
Navaid (VOR, NDB)
Fix

Horizontal Profiles

Position Reports

Time Latitude Longitude Heading Altitude Ground
Speed
07-Nov-18 08:11 47.538550 -122.305174 319 23ft 0kts
07-Nov-18 08:12 47.538550 -122.305174 319 23ft 0kts
07-Nov-18 08:13 47.538550 -122.305174 319 23ft 0kts
07-Nov-18 08:14 47.538550 -122.305174 319 23ft 0kts
07-Nov-18 08:15 47.538550 -122.305174 319 23ft 0kts
07-Nov-18 08:16 47.538550 -122.305174 319 23ft 0kts
07-Nov-18 08:17 47.538550 -122.305174 319 23ft 0kts
07-Nov-18 08:18 47.538550 -122.305174 319 23ft 0kts
07-Nov-18 08:19 47.538550 -122.305174 319 23ft 0kts
07-Nov-18 08:20 47.538550 -122.305174 319 23ft 0kts
07-Nov-18 08:21 47.538550 -122.305174 319 23ft 0kts
07-Nov-18 08:22 47.538550 -122.305174 319 23ft 0kts
07-Nov-18 08:23 47.538599 -122.305356 257 23ft 0kts
07-Nov-18 08:24 47.538599 -122.305356 257 23ft 0kts
07-Nov-18 08:25 47.538599 -122.305356 257 23ft 0kts
07-Nov-18 08:26 47.538599 -122.305356 257 23ft 0kts
07-Nov-18 08:27 47.538599 -122.305356 257 23ft 0kts
07-Nov-18 08:28 47.538599 -122.305356 257 23ft 0kts
07-Nov-18 08:29 47.538599 -122.305356 257 23ft 0kts
07-Nov-18 08:30 47.538599 -122.305356 257 23ft 0kts
07-Nov-18 08:31 47.538599 -122.305356 257 23ft 0kts
07-Nov-18 08:32 47.538598 -122.305369 257 23ft 1kts
07-Nov-18 08:33 47.538271 -122.306055 234 23ft 0kts
07-Nov-18 08:34 47.539132 -122.307456 329 23ft 20kts
07-Nov-18 08:35 47.541067 -122.309672 249 23ft 10kts
07-Nov-18 08:36 47.540916 -122.310093 238 23ft 0kts
07-Nov-18 08:37 47.539346 -122.310357 154 23ft 50kts
07-Nov-18 08:38 47.525103 -122.298632 150 426ft 129kts
07-Nov-18 08:39 47.506863 -122.283231 150 1699ft 130kts
07-Nov-18 08:40 47.484461 -122.264402 150 2023ft 190kts
07-Nov-18 08:41 47.459664 -122.243553 149 3455ft 169kts
07-Nov-18 08:42 47.432422 -122.232252 191 4766ft 172kts
07-Nov-18 08:43 47.403144 -122.239676 188 6028ft 177kts
07-Nov-18 08:44 47.374349 -122.245267 187 6964ft 197kts
07-Nov-18 08:45 47.340542 -122.250946 186 6990ft 241kts
07-Nov-18 08:46 47.302995 -122.256818 186 6981ft 258kts
07-Nov-18 08:47 47.265737 -122.262518 186 6977ft 258kts
07-Nov-18 08:48 47.227219 -122.268362 186 6978ft 257kts
07-Nov-18 08:49 47.188905 -122.274150 186 7529ft 238kts
07-Nov-18 08:50 47.152967 -122.279549 186 8832ft 217kts
07-Nov-18 08:51 47.117884 -122.284816 186 10202ft 205kts
07-Nov-18 08:52 47.081486 -122.290276 186 11703ft 197kts
07-Nov-18 08:53 47.043839 -122.295889 186 13310ft 192kts
07-Nov-18 08:54 47.005442 -122.301646 187 14804ft 199kts
07-Nov-18 08:55 46.962900 -122.308070 186 14999ft 259kts
07-Nov-18 08:56 46.914376 -122.308684 173 14989ft 287kts
07-Nov-18 08:57 46.866821 -122.308165 180 14975ft 298kts
07-Nov-18 08:58 46.814397 -122.309349 180 14973ft 304kts
07-Nov-18 08:59 46.763282 -122.309571 179 14972ft 304kts
07-Nov-18 09:00 46.713639 -122.309617 179 14972ft 303kts
07-Nov-18 09:01 46.662750 -122.309615 179 14973ft 303kts
07-Nov-18 09:02 46.608837 -122.309607 179 14973ft 303kts
07-Nov-18 09:03 46.552197 -122.309593 179 14974ft 303kts
07-Nov-18 09:04 46.494462 -122.309579 179 14978ft 303kts
07-Nov-18 09:05 46.440717 -122.309572 179 14940ft 303kts
07-Nov-18 09:06 46.390183 -122.309565 179 14329ft 299kts
07-Nov-18 09:07 46.333850 -122.309560 179 13649ft 294kts
07-Nov-18 09:08 46.278860 -122.309546 179 12978ft 291kts
07-Nov-18 09:09 46.231209 -122.324419 201 12340ft 284kts
07-Nov-18 09:10 46.185835 -122.349421 201 11727ft 281kts
07-Nov-18 09:11 46.140793 -122.374478 201 11113ft 280kts
07-Nov-18 09:12 46.096121 -122.399345 201 10457ft 285kts
07-Nov-18 09:13 46.051034 -122.423769 201 9722ft 288kts
07-Nov-18 09:14 46.007220 -122.447348 201 8953ft 280kts
07-Nov-18 09:15 45.964509 -122.470358 201 8186ft 274kts
07-Nov-18 09:16 45.922140 -122.483479 170 7392ft 264kts
07-Nov-18 09:17 45.882677 -122.472555 168 6676ft 262kts
07-Nov-18 09:18 45.844053 -122.460620 167 6004ft 262kts
07-Nov-18 09:19 45.804339 -122.448098 167 5950ft 253kts
07-Nov-18 09:20 45.766705 -122.436187 167 5950ft 248kts
07-Nov-18 09:21 45.727585 -122.423800 167 5951ft 246kts
07-Nov-18 09:22 45.688917 -122.411538 167 5949ft 241kts
07-Nov-18 09:23 45.651637 -122.399765 167 5950ft 229kts
07-Nov-18 09:24 45.617092 -122.380898 124 5905ft 225kts
07-Nov-18 09:25 45.605350 -122.330119 104 5298ft 220kts
07-Nov-18 09:26 45.593368 -122.279944 114 4830ft 204kts
07-Nov-18 09:27 45.578507 -122.236063 115 4306ft 193kts
07-Nov-18 09:28 45.546709 -122.225584 195 3955ft 179kts
07-Nov-18 09:29 45.509390 -122.239612 195 3952ft 177kts
07-Nov-18 09:30 45.472362 -122.260815 242 3946ft 184kts
07-Nov-18 09:31 45.479804 -122.302321 301 3971ft 180kts
07-Nov-18 09:32 45.493744 -122.337548 299 3683ft 173kts
07-Nov-18 09:33 45.507209 -122.371744 300 3169ft 171kts
07-Nov-18 09:34 45.520536 -122.405717 299 2639ft 166kts
07-Nov-18 09:35 45.532553 -122.436264 299 2153ft 159kts
07-Nov-18 09:36 45.543426 -122.463962 299 1700ft 136kts
07-Nov-18 09:37 45.553627 -122.490078 299 1340ft 119kts
07-Nov-18 09:38 45.563124 -122.514465 299 924ft 108kts
07-Nov-18 09:39 45.571573 -122.535980 299 600ft 95kts
07-Nov-18 09:40 45.578843 -122.554658 299 297ft 84kts
07-Nov-18 09:41 45.585623 -122.571980 299 43ft 78kts
07-Nov-18 09:42 45.588827 -122.582059 206 32ft 13kts

Navigation Log

Ident Type
Flight plan parsing failed, navigation log unavailable